Time,TemperatureF,DewpointF,PressureIn,WindDirection,WindDirectionDegrees,WindSpeedMPH,WindSpeedGustMPH,Humidity,HourlyPrecipIn,Conditions,Clouds,dailyrainin,SoftwareType,DateUTC
2013-08-29 00:02:00,74.0,49.0,25.86,WSW,249,1.0,3.0,42,0.00,,,0.00,weatherlink.com 1.10,2013-08-29 06:02:00,
2013-08-29 00:17:00,73.1,50.0,25.85,SW,224,4.0,4.0,44,0.00,,,0.00,weatherlink.com 1.10,2013-08-29 06:17:00,
2013-08-29 00:32:00,73.3,50.0,25.84,SSW,204,4.0,8.0,44,0.00,,,0.00,weatherlink.com 1.10,2013-08-29 06:32:00,
2013-08-29 00:47:00,71.6,50.0,25.84,SSE,161,3.0,4.0,47,0.00,,,0.00,weatherlink.com 1.10,2013-08-29 06:47:00,
2013-08-29 01:02:00,70.7,50.0,25.84,SSW,204,3.0,4.0,48,0.00,,,0.00,weatherlink.com 1.10,2013-08-29 07:02:00,
2013-08-29 01:17:00,71.7,51.0,25.84,SSE,156,2.0,5.0,48,0.00,,,0.00,weatherlink.com 1.10,2013-08-29 07:17:00,
2013-08-29 01:32:00,71.0,51.0,25.84,WSW,251,1.0,4.0,49,0.00,,,0.00,weatherlink.com 1.10,2013-08-29 07:32:00,
2013-08-29 01:47:00,70.6,51.0,25.83,WSW,253,2.0,5.0,50,0.00,,,0.00,weatherlink.com 1.10,2013-08-29 07:47:00,
2013-08-29 02:03:00,69.5,51.0,25.83,WNW,291,1.0,5.0,52,0.00,,,0.00,weatherlink.com 1.10,2013-08-29 08:03:00,
2013-08-29 02:18:00,67.5,52.0,25.83,West,267,1.0,1.0,58,0.00,,,0.00,weatherlink.com 1.10,2013-08-29 08:18:00,
2013-08-29 02:33:00,66.8,52.0,25.83,West,270,0.0,1.0,59,0.00,,,0.00,weatherlink.com 1.10,2013-08-29 08:33:00,
2013-08-29 02:48:00,66.4,51.0,25.83,West,281,0.0,1.0,59,0.00,,,0.00,weatherlink.com 1.10,2013-08-29 08:48:00,
2013-08-29 03:03:00,66.6,52.0,25.83,WNW,294,1.0,3.0,60,0.00,,,0.00,weatherlink.com 1.10,2013-08-29 09:03:00,
2013-08-29 03:18:00,64.8,52.0,25.83,WNW,294,0.0,1.0,64,0.00,,,0.00,weatherlink.com 1.10,2013-08-29 09:18:00,
2013-08-29 03:33:00,65.6,52.0,25.82,WNW,291,2.0,2.0,61,0.00,,,0.00,weatherlink.com 1.10,2013-08-29 09:33:00,
2013-08-29 03:48:00,65.7,51.0,25.82,West,276,3.0,4.0,60,0.00,,,0.00,weatherlink.com 1.10,2013-08-29 09:48:00,
2013-08-29 04:03:00,66.6,52.0,25.82,WSW,248,0.0,3.0,59,0.00,,,0.00,weatherlink.com 1.10,2013-08-29 10:03:00,
2013-08-29 04:18:00,65.2,52.0,25.82,West,262,1.0,4.0,62,0.00,,,0.00,weatherlink.com 1.10,2013-08-29 10:18:00,
2013-08-29 04:33:00,64.3,52.0,25.82,West,274,4.0,6.0,65,0.00,,,0.00,weatherlink.com 1.10,2013-08-29 10:33:00,
2013-08-29 04:48:00,64.0,52.0,25.82,West,281,2.0,6.0,66,0.00,,,0.00,weatherlink.com 1.10,2013-08-29 10:48:00,
2013-08-29 05:03:00,63.5,53.0,25.82,West,274,3.0,6.0,68,0.00,,,0.00,weatherlink.com 1.10,2013-08-29 11:03:00,
2013-08-29 05:18:00,64.4,53.0,25.82,West,271,3.0,4.0,66,0.00,,,0.00,weatherlink.com 1.10,2013-08-29 11:18:00,
2013-08-29 05:33:00,64.0,53.0,25.82,WSW,256,3.0,4.0,67,0.00,,,0.00,weatherlink.com 1.10,2013-08-29 11:33:00,
2013-08-29 05:48:00,63.2,53.0,25.82,WNW,294,3.0,5.0,69,0.00,,,0.00,weatherlink.com 1.10,2013-08-29 11:48:00,
2013-08-29 06:03:00,62.8,52.0,25.82,WNW,285,4.0,7.0,69,0.00,,,0.00,weatherlink.com 1.10,2013-08-29 12:03:00,
2013-08-29 06:18:00,63.5,53.0,25.82,WNW,300,5.0,-999.0,68,-99.99,,,0.00,weatherlink.com 1.10,2013-08-29 12:18:00,
2013-08-29 06:33:00,63.2,53.0,25.82,NW,306,6.0,7.0,69,0.00,,,0.00,weatherlink.com 1.10,2013-08-29 12:33:00,
2013-08-29 06:48:00,63.5,53.0,25.83,WNW,294,3.0,8.0,69,0.00,,,0.00,weatherlink.com 1.10,2013-08-29 12:48:00,
2013-08-29 07:03:00,64.9,54.0,25.82,WNW,290,4.0,7.0,68,0.00,,,0.00,weatherlink.com 1.10,2013-08-29 13:03:00,
2013-08-29 07:18:00,69.3,53.0,25.83,NW,305,11.0,13.0,56,0.00,,,0.00,weatherlink.com 1.10,2013-08-29 13:18:00,
2013-08-29 07:33:00,71.9,52.0,25.84,WNW,300,8.0,14.0,49,0.00,,,0.00,weatherlink.com 1.10,2013-08-29 13:33:00,
2013-08-29 07:48:00,73.7,52.0,25.84,NW,305,6.0,12.0,47,0.00,,,0.00,weatherlink.com 1.10,2013-08-29 13:48:00,
2013-08-29 08:03:00,75.5,53.0,25.84,NW,312,6.0,9.0,45,0.00,,,0.00,weatherlink.com 1.10,2013-08-29 14:03:00,
2013-08-29 08:18:00,77.7,53.0,25.84,WNW,296,5.0,9.0,43,0.00,,,0.00,weatherlink.com 1.10,2013-08-29 14:18:00,
2013-08-29 08:33:00,79.6,54.0,25.84,NNW,330,4.0,10.0,42,0.00,,,0.00,weatherlink.com 1.10,2013-08-29 14:33:00,
2013-08-29 08:48:00,81.1,55.0,25.84,WNW,302,8.0,11.0,40,0.00,,,0.00,weatherlink.com 1.10,2013-08-29 14:48:00,
2013-08-29 09:04:00,82.9,54.0,25.84,WNW,290,5.0,10.0,37,0.00,,,0.00,weatherlink.com 1.10,2013-08-29 15:04:00,
2013-08-29 09:19:00,84.4,54.0,25.84,WNW,294,7.0,10.0,35,0.00,,,0.00,weatherlink.com 1.10,2013-08-29 15:19:00,
2013-08-29 09:34:00,85.7,53.0,25.84,NW,312,6.0,11.0,32,0.00,,,0.00,weatherlink.com 1.10,2013-08-29 15:34:00,
2013-08-29 09:49:00,87.5,53.0,25.84,WNW,302,5.0,10.0,31,0.00,,,0.00,weatherlink.com 1.10,2013-08-29 15:49:00,
2013-08-29 10:04:00,88.3,53.0,25.84,WNW,296,5.0,13.0,30,0.00,,,0.00,weatherlink.com 1.10,2013-08-29 16:04:00,
2013-08-29 10:19:00,88.8,53.0,25.85,NNW,340,7.0,10.0,29,0.00,,,0.00,weatherlink.com 1.10,2013-08-29 16:19:00,
2013-08-29 10:34:00,90.1,52.0,25.85,NW,312,7.0,10.0,27,0.00,,,0.00,weatherlink.com 1.10,2013-08-29 16:34:00,
2013-08-29 10:49:00,91.1,53.0,25.85,NW,316,3.0,12.0,27,0.00,,,0.00,weatherlink.com 1.10,2013-08-29 16:49:00,
2013-08-29 11:04:00,93.1,52.0,25.85,NE,52,4.0,10.0,25,0.00,,,0.00,weatherlink.com 1.10,2013-08-29 17:04:00,
2013-08-29 11:19:00,94.1,52.0,25.85,NW,325,6.0,9.0,24,0.00,,,0.00,weatherlink.com 1.10,2013-08-29 17:19:00,
2013-08-29 11:34:00,93.5,54.0,25.85,NNW,335,6.0,11.0,26,0.00,,,0.00,weatherlink.com 1.10,2013-08-29 17:34:00,
2013-08-29 11:49:00,93.6,53.0,25.86,North,3,5.0,10.0,25,0.00,,,0.00,weatherlink.com 1.10,2013-08-29 17:49:00,
2013-08-29 12:04:00,92.9,53.0,25.86,NW,314,8.0,16.0,26,0.00,,,0.00,weatherlink.com 1.10,2013-08-29 18:04:00,
2013-08-29 12:19:00,93.2,53.0,25.85,WNW,285,8.0,9.0,25,0.00,,,0.00,weatherlink.com 1.10,2013-08-29 18:19:00,
2013-08-29 12:34:00,94.4,52.0,25.85,NE,44,8.0,12.0,24,0.00,,,0.00,weatherlink.com 1.10,2013-08-29 18:34:00,
2013-08-29 12:49:00,94.5,51.0,25.85,NNW,342,4.0,9.0,23,0.00,,,0.00,weatherlink.com 1.10,2013-08-29 18:49:00,
2013-08-29 13:04:00,95.6,52.0,25.85,ENE,64,6.0,10.0,23,0.00,,,0.00,weatherlink.com 1.10,2013-08-29 19:04:00,
2013-08-29 13:19:00,95.7,52.0,25.85,NW,314,6.0,12.0,23,0.00,,,0.00,weatherlink.com 1.10,2013-08-29 19:19:00,
2013-08-29 13:34:00,95.6,51.0,25.85,NNW,335,8.0,14.0,22,0.00,,,0.00,weatherlink.com 1.10,2013-08-29 19:34:00,
2013-08-29 13:49:00,95.7,52.0,25.85,NNE,14,9.0,14.0,23,0.00,,,0.00,weatherlink.com 1.10,2013-08-29 19:49:00,
2013-08-29 14:04:00,95.9,53.0,25.85,NE,49,10.0,13.0,23,0.00,,,0.00,weatherlink.com 1.10,2013-08-29 20:04:00,
2013-08-29 14:19:00,95.3,52.0,25.84,ENE,61,12.0,13.0,23,0.00,,,0.00,weatherlink.com 1.10,2013-08-29 20:19:00,
2013-08-29 14:34:00,95.4,52.0,25.84,NE,51,12.0,15.0,23,0.00,,,0.00,weatherlink.com 1.10,2013-08-29 20:34:00,
2013-08-29 14:49:00,95.6,53.0,25.84,NNE,30,6.0,12.0,24,0.00,,,0.00,weatherlink.com 1.10,2013-08-29 20:49:00,
2013-08-29 15:04:00,94.7,55.0,25.84,ENE,69,6.0,12.0,26,0.00,,,0.00,weatherlink.com 1.10,2013-08-29 21:04:00,
2013-08-29 15:19:00,95.4,53.0,25.84,NE,40,6.0,13.0,24,0.00,,,0.00,weatherlink.com 1.10,2013-08-29 21:19:00,
2013-08-29 15:34:00,94.9,54.0,25.84,NE,36,8.0,16.0,25,0.00,,,0.00,weatherlink.com 1.10,2013-08-29 21:34:00,
2013-08-29 15:49:00,95.5,55.0,25.84,ENE,61,3.0,11.0,25,0.00,,,0.00,weatherlink.com 1.10,2013-08-29 21:49:00,
2013-08-29 16:04:00,95.9,55.0,25.84,NW,309,3.0,10.0,25,0.00,,,0.00,weatherlink.com 1.10,2013-08-29 22:04:00,
2013-08-29 16:19:00,95.5,53.0,25.84,North,354,1.0,8.0,24,0.00,,,0.00,weatherlink.com 1.10,2013-08-29 22:19:00,
2013-08-29 16:34:00,94.9,54.0,25.84,NE,54,4.0,9.0,25,0.00,,,0.00,weatherlink.com 1.10,2013-08-29 22:34:00,
2013-08-29 16:49:00,93.3,57.0,25.84,North,5,7.0,13.0,29,0.00,,,0.00,weatherlink.com 1.10,2013-08-29 22:49:00,
2013-08-29 17:04:00,94.5,57.0,25.84,North,6,8.0,10.0,28,0.00,,,0.00,weatherlink.com 1.10,2013-08-29 23:04:00,
2013-08-29 17:19:00,92.1,57.0,25.84,NE,54,6.0,14.0,31,0.00,,,0.00,weatherlink.com 1.10,2013-08-29 23:19:00,
2013-08-29 17:34:00,92.9,58.0,25.84,ENE,67,15.0,15.0,31,0.00,,,0.00,weatherlink.com 1.10,2013-08-29 23:34:00,
2013-08-29 17:49:00,92.2,58.0,25.84,NNE,28,6.0,11.0,32,0.00,,,0.00,weatherlink.com 1.10,2013-08-29 23:49:00,
2013-08-29 18:05:00,91.1,58.0,25.84,ENE,61,7.0,13.0,33,0.00,,,0.00,weatherlink.com 1.10,2013-08-30 00:05:00,
2013-08-29 18:20:00,90.6,58.0,25.85,NNE,33,11.0,13.0,33,0.00,,,0.00,weatherlink.com 1.10,2013-08-30 00:20:00,
2013-08-29 18:35:00,90.0,57.0,25.85,ENE,75,7.0,11.0,33,0.00,,,0.00,weatherlink.com 1.10,2013-08-30 00:35:00,
2013-08-29 18:50:00,88.9,59.0,25.85,ENE,67,9.0,11.0,36,0.00,,,0.00,weatherlink.com 1.10,2013-08-30 00:50:00,
2013-08-29 19:05:00,87.2,60.0,25.85,NNE,20,6.0,11.0,40,0.00,,,0.00,weatherlink.com 1.10,2013-08-30 01:05:00,
2013-08-29 19:20:00,85.4,60.0,25.86,North,6,6.0,8.0,42,0.00,,,0.00,weatherlink.com 1.10,2013-08-30 01:20:00,
2013-08-29 19:35:00,83.7,60.0,25.86,NE,46,3.0,6.0,44,0.00,,,0.00,weatherlink.com 1.10,2013-08-30 01:35:00,
2013-08-29 19:50:00,82.3,59.0,25.86,ENE,67,3.0,7.0,46,0.00,,,0.00,weatherlink.com 1.10,2013-08-30 01:50:00,
2013-08-29 20:05:00,80.8,60.0,25.87,NE,39,3.0,7.0,49,0.00,,,0.00,weatherlink.com 1.10,2013-08-30 02:05:00,
2013-08-29 20:20:00,79.6,59.0,25.87,NNE,25,3.0,5.0,50,0.00,,,0.00,weatherlink.com 1.10,2013-08-30 02:20:00,
2013-08-29 20:35:00,78.9,60.0,25.88,NE,47,4.0,5.0,52,0.00,,,0.00,weatherlink.com 1.10,2013-08-30 02:35:00,
2013-08-29 20:50:00,78.6,60.0,25.88,ENE,60,3.0,7.0,53,0.00,,,0.00,weatherlink.com 1.10,2013-08-30 02:50:00,
2013-08-29 21:05:00,77.3,60.0,25.88,NE,36,2.0,5.0,55,0.00,,,0.00,weatherlink.com 1.10,2013-08-30 03:05:00,
2013-08-29 21:20:00,76.0,59.0,25.88,NE,39,2.0,4.0,56,0.00,,,0.00,weatherlink.com 1.10,2013-08-30 03:20:00,
2013-08-29 21:35:00,74.6,59.0,25.89,NE,44,2.0,4.0,59,0.00,,,0.00,weatherlink.com 1.10,2013-08-30 03:35:00,
2013-08-29 21:50:00,73.1,59.0,25.89,NNE,24,2.0,3.0,62,0.00,,,0.00,weatherlink.com 1.10,2013-08-30 03:50:00,
2013-08-29 22:05:00,71.3,60.0,25.89,NNE,32,1.0,3.0,67,0.00,,,0.00,weatherlink.com 1.10,2013-08-30 04:05:00,
2013-08-29 22:20:00,70.3,60.0,25.89,NNE,20,1.0,2.0,70,0.00,,,0.00,weatherlink.com 1.10,2013-08-30 04:20:00,
2013-08-29 22:35:00,69.8,60.0,25.88,NNE,27,1.0,3.0,71,0.00,,,0.00,weatherlink.com 1.10,2013-08-30 04:35:00,
2013-08-29 22:50:00,69.6,60.0,25.89,NE,49,1.0,2.0,72,0.00,,,0.00,weatherlink.com 1.10,2013-08-30 04:50:00,
2013-08-29 23:05:00,69.5,61.0,25.89,NNE,33,0.0,1.0,73,0.00,,,0.00,weatherlink.com 1.10,2013-08-30 05:05:00,
2013-08-29 23:20:00,69.1,60.0,25.89,NNE,33,2.0,2.0,73,0.00,,,0.00,weatherlink.com 1.10,2013-08-30 05:20:00,
2013-08-29 23:35:00,68.6,60.0,25.89,NNE,33,5.0,5.0,75,0.00,,,0.00,weatherlink.com 1.10,2013-08-30 05:35:00,
2013-08-29 23:50:00,69.0,61.0,25.89,NE,49,2.0,6.0,75,0.00,,,0.00,weatherlink.com 1.10,2013-08-30 05:50:00,